Time;durP1;ratioP1;P1;durP2;ratioP2;P2;SDS_P1;SDS_P2;PMS_P1;PMS_P2;Temp;Humidity;BMP_temperature;BMP_pressure;BME280_temperature;BME280_humidity;BME280_pressure;Samples;Min_cycle;Max_cycle;Signal;HPM_P1;HPM_P2
2023/03/17 00:00:35;;;;;;;39.67;6.93;;;17.10;56.10;;;;;;5029817;28;20204;-88
2023/03/17 00:03:02;;;;;;;33.80;6.73;;;17.10;56.10;;;;;;5031208;28;20577;-88
2023/03/17 00:05:32;;;;;;;47.80;8.07;;;17.10;56.10;;;;;;5028210;28;20207;-90
2023/03/17 00:08:06;;;;;;;33.97;6.40;;;17.10;56.10;;;;;;5030538;28;20235;-90
2023/03/17 00:10:35;;;;;;;41.00;7.07;;;17.10;56.00;;;;;;5018076;28;20218;-89
2023/03/17 00:13:02;;;;;;;42.53;6.97;;;17.10;56.70;;;;;;5029449;28;20257;-89
2023/03/17 00:15:29;;;;;;;40.20;7.33;;;17.00;56.00;;;;;;5028969;28;20264;-89
2023/03/17 00:17:57;;;;;;;36.77;6.83;;;17.10;56.10;;;;;;5031225;28;20203;-90
2023/03/17 00:20:26;;;;;;;43.97;6.97;;;17.10;56.10;;;;;;5028263;28;20207;-88
2023/03/17 00:22:54;;;;;;;24.03;6.03;;;17.00;56.00;;;;;;5030745;28;20201;-89
2023/03/17 00:25:24;;;;;;;34.73;6.63;;;17.10;56.10;;;;;;5028025;28;20660;-89
2023/03/17 00:27:54;;;;;;;46.07;7.67;;;17.00;56.00;;;;;;5028463;28;20243;-89
2023/03/17 00:30:23;;;;;;;55.63;8.00;;;17.00;56.00;;;;;;5028563;28;20209;-88
2023/03/17 00:32:53;;;;;;;38.40;6.87;;;17.00;56.00;;;;;;5029491;28;20650;-88
2023/03/17 00:35:22;;;;;;;30.33;6.10;;;17.00;56.00;;;;;;5030317;28;20312;-88
2023/03/17 00:37:51;;;;;;;35.03;7.03;;;17.00;56.00;;;;;;5031576;28;20235;-88
2023/03/17 00:40:22;;;;;;;28.93;6.07;;;17.00;56.00;;;;;;5027508;28;20260;-88
2023/03/17 00:42:50;;;;;;;26.20;5.47;;;17.00;55.90;;;;;;5031584;28;20240;-90
2023/03/17 00:45:20;;;;;;;74.93;9.73;;;17.00;55.90;;;;;;5024615;28;20206;-87
2023/03/17 00:47:47;;;;;;;41.50;7.07;;;17.00;55.90;;;;;;5025641;28;20248;-88
2023/03/17 00:50:18;;;;;;;38.40;6.60;;;17.00;55.90;;;;;;5027431;28;20205;-88
2023/03/17 00:52:45;;;;;;;66.87;9.37;;;17.00;55.90;;;;;;5022620;28;20711;-88
2023/03/17 00:55:13;;;;;;;36.73;6.93;;;17.00;55.90;;;;;;5020941;28;20202;-88
2023/03/17 00:57:41;;;;;;;42.60;6.93;;;17.00;56.00;;;;;;5018681;28;20205;-87
2023/03/17 01:00:23;;;;;;;45.03;7.60;;;17.00;56.00;;;;;;5024982;28;20203;-87
2023/03/17 01:02:51;;;;;;;31.47;6.53;;;16.90;55.80;;;;;;5030858;28;20672;-88
2023/03/17 01:05:18;;;;;;;35.90;6.90;;;16.90;55.90;;;;;;5012209;28;20213;-88
2023/03/17 01:07:51;;;;;;;44.10;7.30;;;16.90;55.90;;;;;;5017778;28;20209;-88
2023/03/17 01:10:21;;;;;;;47.93;7.87;;;16.90;55.90;;;;;;5029733;28;20208;-87
2023/03/17 01:12:48;;;;;;;47.20;7.43;;;16.90;55.90;;;;;;5019901;28;20206;-87
2023/03/17 01:15:16;;;;;;;24.07;5.93;;;16.90;55.90;;;;;;5029897;28;20201;-88
2023/03/17 01:17:44;;;;;;;38.93;7.07;;;16.90;55.90;;;;;;5029739;28;20252;-89
2023/03/17 01:20:19;;;;;;;34.37;7.00;;;16.90;55.90;;;;;;5031624;28;20747;-90
2023/03/17 01:22:46;;;;;;;36.90;6.20;;;16.90;55.90;;;;;;5030421;28;20317;-89
2023/03/17 01:25:15;;;;;;;46.47;7.37;;;16.90;55.90;;;;;;5030951;28;20207;-90
2023/03/17 01:27:43;;;;;;;43.60;7.43;;;16.90;55.90;;;;;;5029342;28;20225;-88
2023/03/17 01:30:22;;;;;;;27.70;5.97;;;16.90;55.90;;;;;;5031248;28;20232;-89
2023/03/17 01:32:50;;;;;;;33.40;6.87;;;16.90;55.90;;;;;;5030409;28;20208;-88
2023/03/17 01:35:18;;;;;;;28.47;6.57;;;16.90;55.90;;;;;;5030925;28;20208;-88
2023/03/17 01:37:46;;;;;;;34.10;6.80;;;16.90;55.90;;;;;;5029864;28;20236;-88
2023/03/17 01:40:16;;;;;;;30.10;6.60;;;16.80;55.80;;;;;;5033299;28;20307;-88
2023/03/17 01:42:45;;;;;;;41.40;6.93;;;16.90;55.90;;;;;;5032246;28;20225;-87
2023/03/17 01:45:46;;;;;;;34.73;7.00;;;16.80;56.40;;;;;;5030911;28;20217;-87
2023/03/17 01:48:16;;;;;;;31.23;6.33;;;16.80;55.80;;;;;;5023735;28;20232;-88
2023/03/17 01:50:45;;;;;;;29.13;6.60;;;16.80;55.80;;;;;;5029500;28;20209;-89
2023/03/17 01:53:12;;;;;;;25.30;6.33;;;16.90;55.90;;;;;;5027528;28;20588;-89
2023/03/17 01:55:41;;;;;;;25.97;6.57;;;16.80;55.90;;;;;;5025778;28;20207;-89
2023/03/17 01:58:09;;;;;;;27.40;6.43;;;16.80;55.80;;;;;;5028891;28;20213;-90
2023/03/17 02:00:36;;;;;;;31.00;6.63;;;16.80;55.80;;;;;;5027932;28;20211;-89
2023/03/17 02:03:04;;;;;;;41.20;7.27;;;16.80;55.90;;;;;;5016339;28;20243;-88
2023/03/17 02:05:33;;;;;;;31.37;6.13;;;16.80;55.90;;;;;;5028080;28;20220;-88
2023/03/17 02:08:00;;;;;;;42.70;7.07;;;16.80;55.80;;;;;;5021029;28;20214;-88
2023/03/17 02:10:30;;;;;;;27.60;6.13;;;16.80;55.90;;;;;;5028630;28;20259;-87
2023/03/17 02:13:02;;;;;;;35.83;7.10;;;16.80;55.90;;;;;;5025469;28;20202;-88
2023/03/17 02:15:37;;;;;;;50.23;8.07;;;16.80;55.90;;;;;;5023562;28;20200;-88
2023/03/17 02:18:05;;;;;;;50.47;8.03;;;16.80;55.80;;;;;;5019918;28;20676;-88
2023/03/17 02:21:12;;;;;;;39.53;7.20;;;16.80;55.90;;;;;;5027676;28;20233;-88
2023/03/17 02:23:40;;;;;;;58.93;8.73;;;16.80;55.80;;;;;;5023886;28;20197;-87
2023/03/17 02:26:08;;;;;;;20.50;5.03;;;16.80;55.80;;;;;;5027445;28;20213;-88
2023/03/17 02:28:35;;;;;;;46.13;7.70;;;16.80;55.90;;;;;;5027531;28;20255;-88
2023/03/17 02:31:03;;;;;;;34.93;6.70;;;16.80;55.90;;;;;;5027698;28;20202;-89
2023/03/17 02:33:30;;;;;;;29.67;6.47;;;16.80;55.90;;;;;;5028177;28;20262;-88
2023/03/17 02:35:57;;;;;;;30.40;6.00;;;16.70;55.80;;;;;;5026237;28;20289;-88
2023/03/17 02:38:24;;;;;;;31.50;6.60;;;16.70;55.80;;;;;;5028192;28;20207;-88
2023/03/17 02:40:53;;;;;;;32.60;6.87;;;16.70;55.80;;;;;;5028575;28;20237;-87
2023/03/17 02:43:19;;;;;;;51.77;8.07;;;16.70;55.70;;;;;;5027010;28;20210;-87
2023/03/17 02:45:46;;;;;;;38.97;7.47;;;16.70;55.80;;;;;;5023642;28;20203;-88
2023/03/17 02:48:14;;;;;;;36.60;7.27;;;16.70;55.80;;;;;;5027722;28;20588;-88
2023/03/17 02:50:42;;;;;;;28.30;6.87;;;16.70;55.70;;;;;;5029521;28;20211;-89
2023/03/17 02:53:09;;;;;;;22.03;5.87;;;16.70;55.80;;;;;;5027649;28;20208;-88
2023/03/17 02:55:36;;;;;;;32.97;6.27;;;16.70;55.80;;;;;;5024961;28;20214;-90
2023/03/17 02:58:05;;;;;;;30.77;6.93;;;16.70;55.80;;;;;;5028246;28;20198;-90
2023/03/17 03:00:32;;;;;;;26.83;6.50;;;16.70;55.70;;;;;;5025891;28;20210;-88
2023/03/17 03:03:01;;;;;;;45.10;7.93;;;16.70;55.70;;;;;;5027107;28;20324;-87
2023/03/17 03:05:28;;;;;;;34.17;6.53;;;16.70;55.80;;;;;;5028520;28;20657;-88
2023/03/17 03:07:55;;;;;;;34.07;6.60;;;16.70;55.70;;;;;;5029163;28;20198;-89
2023/03/17 03:10:22;;;;;;;31.83;6.97;;;16.70;55.70;;;;;;5017199;28;20239;-88
2023/03/17 03:12:52;;;;;;;31.80;6.83;;;16.70;55.80;;;;;;5022103;28;20677;-89
2023/03/17 03:15:20;;;;;;;26.93;6.00;;;16.70;55.80;;;;;;5026219;28;20201;-89
2023/03/17 03:17:47;;;;;;;31.73;6.77;;;16.70;55.80;;;;;;5028243;28;20553;-89
2023/03/17 03:20:14;;;;;;;33.60;7.23;;;16.70;55.80;;;;;;5027771;28;20758;-89
2023/03/17 03:22:41;;;;;;;29.93;6.70;;;16.70;55.80;;;;;;5028616;28;20275;-89
2023/03/17 03:25:08;;;;;;;32.73;6.70;;;16.70;55.80;;;;;;5027905;28;20247;-89
2023/03/17 03:27:35;;;;;;;22.03;5.37;;;16.70;55.80;;;;;;5028966;28;20208;-90
2023/03/17 03:30:06;;;;;;;39.20;7.03;;;16.70;55.80;;;;;;5028595;28;20316;-89
2023/03/17 03:32:34;;;;;;;32.57;6.43;;;16.70;55.80;;;;;;5026781;28;20199;-90
2023/03/17 03:35:03;;;;;;;27.00;6.50;;;16.70;56.30;;;;;;5026922;28;20309;-89
2023/03/17 03:37:30;;;;;;;31.20;6.83;;;16.70;55.80;;;;;;5026873;28;20650;-89
2023/03/17 03:39:57;;;;;;;27.13;6.57;;;16.70;55.70;;;;;;5029211;28;20237;-90
2023/03/17 03:42:24;;;;;;;34.47;7.37;;;16.70;55.80;;;;;;5028900;28;20201;-89
2023/03/17 03:44:51;;;;;;;32.27;6.97;;;16.70;55.80;;;;;;5027826;28;20213;-89
2023/03/17 03:47:18;;;;;;;25.23;6.13;;;16.70;55.70;;;;;;5025613;28;20207;-89
2023/03/17 03:49:46;;;;;;;35.67;7.20;;;16.70;55.70;;;;;;5027193;28;20225;-88
2023/03/17 03:52:13;;;;;;;38.37;7.47;;;16.70;55.70;;;;;;5026851;28;20741;-88
2023/03/17 03:54:40;;;;;;;35.37;7.23;;;16.70;55.70;;;;;;5022353;28;20194;-88
2023/03/17 03:57:07;;;;;;;24.87;6.23;;;16.70;55.80;;;;;;5026927;28;20579;-88
2023/03/17 03:59:34;;;;;;;27.60;6.50;;;16.70;55.70;;;;;;5025993;28;20199;-89
2023/03/17 04:02:01;;;;;;;36.23;7.73;;;16.70;55.70;;;;;;5027148;28;20667;-89
2023/03/17 04:04:28;;;;;;;35.43;7.50;;;16.70;55.80;;;;;;5027775;28;20220;-88
2023/03/17 04:06:56;;;;;;;24.87;6.23;;;16.60;55.60;;;;;;5023970;28;20675;-87
2023/03/17 04:09:23;;;;;;;31.70;6.80;;;16.60;55.60;;;;;;5027378;28;20225;-88
2023/03/17 04:11:50;;;;;;;41.77;7.50;;;16.60;55.60;;;;;;5026635;28;20228;-89
2023/03/17 04:14:17;;;;;;;26.73;6.63;;;16.60;55.70;;;;;;5027722;28;20981;-88
2023/03/17 04:16:44;;;;;;;63.33;9.30;;;16.60;55.70;;;;;;5024186;28;20669;-88
2023/03/17 04:19:11;;;;;;;37.27;7.43;;;16.60;55.70;;;;;;5027609;28;20208;-89
2023/03/17 04:21:38;;;;;;;46.77;7.90;;;16.60;55.70;;;;;;5025663;28;20204;-88
2023/03/17 04:24:08;;;;;;;48.93;8.77;;;16.60;55.70;;;;;;5024340;28;20192;-89
2023/03/17 04:26:35;;;;;;;60.10;9.60;;;16.60;55.60;;;;;;5026357;28;20572;-89
2023/03/17 04:29:01;;;;;;;25.80;6.67;;;16.60;55.60;;;;;;5030651;28;20239;-88
2023/03/17 04:31:28;;;;;;;37.23;7.47;;;16.60;55.70;;;;;;5030904;28;20564;-88
2023/03/17 04:33:55;;;;;;;37.07;7.20;;;16.60;55.70;;;;;;5030680;28;20674;-89
2023/03/17 04:36:23;;;;;;;27.17;7.03;;;16.60;55.70;;;;;;5031251;28;20205;-89
2023/03/17 04:38:50;;;;;;;29.93;6.57;;;16.60;55.70;;;;;;5028731;28;20200;-88
2023/03/17 04:41:20;;;;;;;56.07;8.90;;;16.60;55.60;;;;;;5027051;28;20236;-88
2023/03/17 04:43:47;;;;;;;27.87;6.13;;;16.60;55.60;;;;;;5030964;28;20206;-89
2023/03/17 04:46:15;;;;;;;30.63;6.90;;;16.60;55.70;;;;;;5029005;28;20217;-88
2023/03/17 04:48:42;;;;;;;30.20;6.73;;;16.60;55.70;;;;;;5029171;28;20254;-89
2023/03/17 04:51:09;;;;;;;30.87;7.30;;;16.70;55.80;;;;;;5028943;28;20223;-89
2023/03/17 04:53:36;;;;;;;28.10;5.83;;;16.60;55.70;;;;;;5030205;28;20234;-88
2023/03/17 04:56:03;;;;;;;24.57;6.37;;;16.50;55.60;;;;;;5029525;28;20284;-90
2023/03/17 04:58:31;;;;;;;26.40;6.27;;;16.60;55.80;;;;;;5030096;28;20206;-88
2023/03/17 05:00:58;;;;;;;26.87;6.40;;;16.60;55.80;;;;;;5028608;28;20220;-88
2023/03/17 05:03:26;;;;;;;29.47;6.80;;;16.60;55.80;;;;;;5028927;28;20201;-88
2023/03/17 05:05:54;;;;;;;32.37;6.87;;;16.60;55.80;;;;;;5031475;28;20287;-89
2023/03/17 05:08:21;;;;;;;37.77;7.27;;;16.60;55.80;;;;;;5031480;28;20248;-89
2023/03/17 05:10:47;;;;;;;31.40;6.80;;;16.60;55.80;;;;;;5033187;28;20245;-89
2023/03/17 05:13:14;;;;;;;35.50;7.40;;;16.60;55.80;;;;;;5029319;28;20293;-88
2023/03/17 05:15:46;;;;;;;28.23;6.30;;;16.60;55.80;;;;;;5027601;28;20653;-89
2023/03/17 05:18:13;;;;;;;34.33;6.90;;;16.60;55.80;;;;;;5030718;28;20194;-89
2023/03/17 05:20:40;;;;;;;24.67;6.53;;;16.70;55.80;;;;;;5027785;28;20205;-89
2023/03/17 05:23:09;;;;;;;27.50;6.53;;;16.60;55.80;;;;;;5030290;28;20213;-91
2023/03/17 05:25:36;;;;;;;24.80;6.00;;;16.60;55.80;;;;;;5031114;28;20202;-90
2023/03/17 05:28:04;;;;;;;29.40;6.63;;;16.60;55.70;;;;;;5031038;28;20193;-91
2023/03/17 05:30:32;;;;;;;29.73;6.40;;;16.60;55.70;;;;;;5031014;28;20235;-88
2023/03/17 05:33:00;;;;;;;60.27;8.93;;;16.60;55.70;;;;;;5028212;28;20918;-89
2023/03/17 05:35:27;;;;;;;25.77;5.83;;;16.50;55.60;;;;;;5030749;28;20637;-89
2023/03/17 05:37:54;;;;;;;37.93;7.70;;;16.60;55.70;;;;;;5026531;28;20205;-89
2023/03/17 05:40:22;;;;;;;32.93;6.93;;;16.60;55.70;;;;;;5028614;28;20203;-89
2023/03/17 05:42:50;;;;;;;32.63;6.43;;;16.60;55.60;;;;;;5029413;28;20219;-89
2023/03/17 05:45:17;;;;;;;32.43;6.97;;;16.60;55.70;;;;;;5030849;28;20216;-89
2023/03/17 05:47:44;;;;;;;27.97;6.23;;;16.60;55.70;;;;;;5025847;28;20198;-89
2023/03/17 05:50:12;;;;;;;34.07;6.77;;;16.60;55.70;;;;;;5029574;28;20236;-89
2023/03/17 05:52:39;;;;;;;26.97;6.23;;;16.60;55.60;;;;;;5024315;28;20731;-89
2023/03/17 05:55:08;;;;;;;35.87;6.77;;;16.60;55.60;;;;;;5028725;28;20203;-89
2023/03/17 05:57:35;;;;;;;35.03;7.40;;;16.60;55.60;;;;;;5028392;28;20197;-89
2023/03/17 06:00:04;;;;;;;31.47;6.27;;;16.60;55.60;;;;;;5026342;28;20214;-89
2023/03/17 06:02:34;;;;;;;39.63;7.30;;;16.60;55.60;;;;;;5025316;28;20276;-89
2023/03/17 06:05:01;;;;;;;38.20;6.87;;;16.60;55.60;;;;;;5029573;28;20208;-90
2023/03/17 06:07:29;;;;;;;29.97;6.93;;;16.60;55.60;;;;;;5028584;28;20312;-88
2023/03/17 06:09:56;;;;;;;41.70;7.77;;;16.60;55.60;;;;;;5027982;28;20242;-90
2023/03/17 06:12:24;;;;;;;56.43;8.37;;;16.60;55.50;;;;;;5018346;28;20577;-89
2023/03/17 06:14:51;;;;;;;59.30;9.00;;;16.60;55.60;;;;;;5029812;28;20237;-89
2023/03/17 06:17:18;;;;;;;56.03;8.50;;;16.50;55.50;;;;;;5027686;28;21410;-89
2023/03/17 06:19:45;;;;;;;74.33;10.03;;;16.60;56.20;;;;;;5017451;28;20561;-90
2023/03/17 06:22:12;;;;;;;20.67;6.00;;;16.50;55.50;;;;;;5029926;28;20199;-89
2023/03/17 06:24:40;;;;;;;33.60;7.10;;;16.50;55.50;;;;;;5030130;28;20682;-88
2023/03/17 06:27:09;;;;;;;26.73;5.70;;;16.50;55.40;;;;;;5025244;28;20209;-89
2023/03/17 06:29:36;;;;;;;48.53;7.33;;;16.50;55.40;;;;;;5026717;28;20256;-89
2023/03/17 06:32:04;;;;;;;28.93;6.83;;;16.60;55.50;;;;;;5023689;28;20229;-89
2023/03/17 06:34:31;;;;;;;30.90;6.27;;;16.50;55.50;;;;;;5028846;28;20244;-90
2023/03/17 06:36:58;;;;;;;26.53;6.23;;;16.40;55.40;;;;;;5028886;28;20208;-89
2023/03/17 06:39:25;;;;;;;26.37;5.90;;;16.50;55.50;;;;;;5023542;28;20225;-89
2023/03/17 06:41:53;;;;;;;30.80;6.87;;;16.50;55.50;;;;;;5023899;28;20686;-89
2023/03/17 06:44:21;;;;;;;29.33;6.57;;;16.50;55.40;;;;;;5028200;28;20285;-89
2023/03/17 06:46:48;;;;;;;33.03;6.63;;;16.50;55.40;;;;;;5024649;28;20544;-89
2023/03/17 06:49:15;;;;;;;43.83;7.87;;;16.50;55.50;;;;;;5017399;28;20672;-89
2023/03/17 06:51:42;;;;;;;33.63;7.20;;;16.50;55.50;;;;;;5026135;28;20201;-89
2023/03/17 06:54:09;;;;;;;37.90;7.43;;;16.50;55.50;;;;;;5026173;28;20645;-89
2023/03/17 06:56:37;;;;;;;37.47;7.07;;;16.50;55.50;;;;;;5025592;28;20742;-87
2023/03/17 06:59:05;;;;;;;33.63;6.73;;;16.50;55.50;;;;;;5027872;28;20271;-95
2023/03/17 07:01:32;;;;;;;38.77;7.23;;;16.50;56.20;;;;;;5016186;28;20218;-91
2023/03/17 07:03:59;;;;;;;40.23;7.33;;;16.50;55.60;;;;;;5014138;28;20576;-88
2023/03/17 07:06:27;;;;;;;32.70;7.40;;;16.50;55.50;;;;;;5026512;28;20235;-87
2023/03/17 07:08:54;;;;;;;45.83;7.63;;;16.50;55.50;;;;;;5012685;28;20760;-90
2023/03/17 07:11:22;;;;;;;49.20;8.10;;;16.50;55.50;;;;;;5024761;28;20775;-89
2023/03/17 07:13:55;;;;;;;34.43;6.87;;;16.50;55.60;;;;;;5028397;28;20565;-89
2023/03/17 07:16:23;;;;;;;27.13;6.87;;;16.50;55.50;;;;;;5025765;28;20203;-89
2023/03/17 07:18:50;;;;;;;47.10;7.87;;;16.50;55.50;;;;;;5025255;28;20211;-90
2023/03/17 07:21:17;;;;;;;48.90;9.33;;;16.50;55.50;;;;;;5028092;28;20203;-89
2023/03/17 07:23:44;;;;;;;48.20;11.60;;;16.50;55.50;;;;;;5028205;28;20848;-89
2023/03/17 07:26:11;;;;;;;59.10;12.27;;;16.50;55.60;;;;;;5026687;28;20212;-90
2023/03/17 07:28:39;;;;;;;60.93;13.00;;;16.50;55.60;;;;;;5027729;28;20559;-89
2023/03/17 07:31:07;;;;;;;45.20;10.90;;;16.50;55.60;;;;;;5027436;28;20234;-89
2023/03/17 07:33:35;;;;;;;54.77;11.10;;;16.50;55.60;;;;;;5028140;28;21013;-89
2023/03/17 07:36:05;;;;;;;48.13;10.30;;;16.50;55.50;;;;;;5027332;28;20563;-90
2023/03/17 07:38:33;;;;;;;54.07;11.67;;;16.50;55.50;;;;;;5028286;28;20310;-89
2023/03/17 07:41:00;;;;;;;48.53;11.10;;;16.50;55.50;;;;;;5027649;28;20222;-89
2023/03/17 07:43:27;;;;;;;53.07;10.83;;;16.50;55.50;;;;;;5020598;28;20205;-89
2023/03/17 07:45:54;;;;;;;53.27;11.70;;;16.50;55.50;;;;;;5027181;28;20224;-89
2023/03/17 07:48:21;;;;;;;46.97;10.63;;;16.50;55.50;;;;;;5028264;28;20505;-89
2023/03/17 07:50:49;;;;;;;69.90;12.13;;;16.50;55.50;;;;;;5022590;28;20229;-89
2023/03/17 07:53:17;;;;;;;42.87;10.07;;;16.50;55.50;;;;;;5023258;28;20212;-89
2023/03/17 07:55:44;;;;;;;46.77;10.03;;;16.50;55.50;;;;;;5019771;28;20202;-88
2023/03/17 07:58:14;;;;;;;53.80;10.53;;;16.50;55.50;;;;;;5026610;28;20228;-89
2023/03/17 08:00:40;;;;;;;47.80;9.43;;;16.50;55.50;;;;;;5013718;28;20843;-89
2023/03/17 08:03:08;;;;;;;56.60;10.33;;;16.50;55.50;;;;;;5023792;28;20666;-89
2023/03/17 08:05:34;;;;;;;51.70;9.57;;;16.50;55.50;;;;;;5030084;28;20304;-88
2023/03/17 08:08:04;;;;;;;53.53;10.30;;;16.50;55.50;;;;;;5030218;28;20205;-89
2023/03/17 08:10:31;;;;;;;44.60;9.80;;;16.50;55.50;;;;;;5030475;28;20274;-89
2023/03/17 08:12:59;;;;;;;59.63;10.53;;;16.50;55.50;;;;;;5030227;28;20289;-90
2023/03/17 08:15:25;;;;;;;44.47;8.97;;;16.50;55.50;;;;;;5029570;28;20199;-89
2023/03/17 08:17:53;;;;;;;43.90;8.63;;;16.50;55.50;;;;;;5020822;28;20201;-89
2023/03/17 08:20:20;;;;;;;43.77;9.63;;;16.50;55.50;;;;;;5016926;28;20209;-89
2023/03/17 08:22:47;;;;;;;37.33;8.90;;;16.50;55.50;;;;;;5030391;28;20208;-89
2023/03/17 08:25:16;;;;;;;60.77;10.43;;;16.50;55.60;;;;;;5028973;28;20304;-89
2023/03/17 08:27:43;;;;;;;48.67;9.93;;;16.50;55.50;;;;;;5029545;28;20314;-89
2023/03/17 08:30:11;;;;;;;53.43;10.30;;;16.40;55.50;;;;;;5030352;28;20312;-89
2023/03/17 08:32:39;;;;;;;41.90;9.07;;;16.50;55.60;;;;;;5011238;28;20206;-89
2023/03/17 08:35:06;;;;;;;43.53;8.97;;;16.50;55.60;;;;;;5011782;28;20490;-90
2023/03/17 08:37:34;;;;;;;51.57;9.37;;;16.50;55.60;;;;;;5030115;28;20237;-88
2023/03/17 08:40:01;;;;;;;66.83;10.60;;;16.50;55.60;;;;;;5032342;28;20211;-88
2023/03/17 08:42:29;;;;;;;37.27;8.10;;;16.50;55.60;;;;;;5033674;28;20211;-89
2023/03/17 08:44:56;;;;;;;58.10;10.33;;;16.50;55.60;;;;;;5019952;28;20214;-89
2023/03/17 08:47:23;;;;;;;57.20;9.40;;;16.50;55.60;;;;;;5027230;28;20217;-90
2023/03/17 08:49:50;;;;;;;46.43;9.70;;;16.50;55.60;;;;;;5031199;28;20211;-89
2023/03/17 08:52:17;;;;;;;38.37;8.37;;;16.50;55.70;;;;;;5029469;28;20259;-89
2023/03/17 08:54:45;;;;;;;44.07;8.67;;;16.50;55.70;;;;;;5029402;28;20256;-89
2023/03/17 08:57:12;;;;;;;29.67;7.87;;;16.50;55.70;;;;;;5029214;28;20299;-88
2023/03/17 08:59:41;;;;;;;50.67;8.90;;;16.50;55.70;;;;;;5030588;28;20281;-89
2023/03/17 09:02:11;;;;;;;49.70;9.53;;;16.50;55.70;;;;;;5019526;28;20211;-89
2023/03/17 09:04:38;;;;;;;39.53;7.97;;;16.50;55.70;;;;;;5029745;28;20712;-89
2023/03/17 09:07:06;;;;;;;42.90;7.90;;;16.50;55.70;;;;;;5029387;28;20207;-89
2023/03/17 09:09:34;;;;;;;38.20;8.17;;;16.50;55.70;;;;;;5029767;28;20202;-88
2023/03/17 09:12:01;;;;;;;46.70;8.17;;;16.50;55.70;;;;;;5029290;28;20243;-89
2023/03/17 09:14:29;;;;;;;37.70;8.27;;;16.50;55.70;;;;;;5029692;28;20209;-89
2023/03/17 09:16:57;;;;;;;41.13;8.43;;;16.50;55.70;;;;;;5030418;28;20186;-89
2023/03/17 09:19:27;;;;;;;51.23;9.30;;;16.60;55.80;;;;;;5010036;28;20213;-89
2023/03/17 09:21:54;;;;;;;48.07;8.97;;;16.50;55.70;;;;;;5027632;28;20197;-88
2023/03/17 09:24:21;;;;;;;40.73;7.70;;;16.50;55.70;;;;;;5030655;28;20247;-90
2023/03/17 09:26:48;;;;;;;42.53;7.97;;;16.60;55.80;;;;;;5030666;28;20292;-89
2023/03/17 09:29:15;;;;;;;38.30;7.80;;;16.60;55.80;;;;;;5030121;28;20260;-89
2023/03/17 09:31:42;;;;;;;46.00;8.73;;;16.60;55.80;;;;;;5029705;28;20235;-89
2023/03/17 09:34:11;;;;;;;57.47;9.57;;;16.50;55.70;;;;;;5028968;28;20697;-89
2023/03/17 09:36:38;;;;;;;37.00;7.97;;;16.60;55.80;;;;;;5030046;28;20234;-89
2023/03/17 09:39:05;;;;;;;37.33;7.77;;;16.60;55.80;;;;;;5029531;28;20674;-88
2023/03/17 09:42:01;;;;;;;50.87;9.50;;;16.60;55.80;;;;;;5028484;28;20216;-89
2023/03/17 09:44:38;;;;;;;31.87;7.17;;;16.60;55.80;;;;;;5022304;28;20205;-89
2023/03/17 09:47:17;;;;;;;55.33;8.90;;;16.70;55.90;;;;;;5028176;28;20231;-89
2023/03/17 09:49:48;;;;;;;56.03;9.53;;;16.60;55.80;;;;;;5028457;28;20202;-89
2023/03/17 09:52:19;;;;;;;57.93;8.93;;;16.60;55.80;;;;;;5024211;28;20749;-89
2023/03/17 09:54:48;;;;;;;57.73;10.03;;;16.60;55.80;;;;;;5029154;28;20244;-88
2023/03/17 09:57:19;;;;;;;43.23;8.57;;;16.60;55.80;;;;;;5029237;28;20281;-89
2023/03/17 09:59:52;;;;;;;39.83;8.23;;;16.70;55.90;;;;;;5025591;28;20280;-89
2023/03/17 10:02:25;;;;;;;42.17;7.87;;;16.60;55.80;;;;;;5020942;28;20227;-89
2023/03/17 10:05:02;;;;;;;39.30;7.53;;;16.70;55.90;;;;;;5026247;28;20205;-89
2023/03/17 10:07:39;;;;;;;43.90;8.13;;;16.70;55.90;;;;;;5028598;28;20207;-89
2023/03/17 10:10:14;;;;;;;36.67;7.33;;;16.70;55.90;;;;;;5027607;28;20201;-89
2023/03/17 10:12:48;;;;;;;38.53;7.60;;;16.70;55.90;;;;;;5027569;28;20271;-89
2023/03/17 10:15:21;;;;;;;38.23;8.13;;;16.70;55.90;;;;;;5025975;28;20809;-89
2023/03/17 10:17:52;;;;;;;35.27;7.53;;;16.70;55.90;;;;;;5028598;28;20206;-89
2023/03/17 10:20:25;;;;;;;40.37;7.93;;;16.70;55.90;;;;;;5025108;28;20223;-89
2023/03/17 10:22:56;;;;;;;47.67;8.60;;;16.70;55.90;;;;;;5017487;28;20203;-89
2023/03/17 10:25:28;;;;;;;42.07;8.27;;;16.70;55.90;;;;;;5027865;28;20294;-89
2023/03/17 10:27:59;;;;;;;49.90;8.93;;;16.70;55.90;;;;;;5029488;28;20650;-89
2023/03/17 10:30:26;;;;;;;61.77;9.50;;;16.70;55.90;;;;;;5026881;28;20210;-89
2023/03/17 10:32:58;;;;;;;54.57;8.93;;;16.70;55.90;;;;;;5014412;28;20747;-89
2023/03/17 10:35:27;;;;;;;60.77;9.57;;;16.80;56.00;;;;;;5027476;28;20224;-89
2023/03/17 10:37:54;;;;;;;43.43;7.67;;;16.80;56.00;;;;;;5023120;28;20641;-88
2023/03/17 10:40:25;;;;;;;43.27;8.33;;;16.70;55.90;;;;;;5011442;28;20794;-89
2023/03/17 10:42:55;;;;;;;41.50;7.87;;;16.80;56.00;;;;;;5026342;28;20219;-89
2023/03/17 10:45:28;;;;;;;52.30;8.87;;;16.80;56.00;;;;;;5026845;28;20717;-89
2023/03/17 10:47:57;;;;;;;38.90;8.20;;;16.90;56.00;;;;;;5026827;28;20207;-89
2023/03/17 10:50:27;;;;;;;42.17;8.33;;;16.80;56.00;;;;;;5026835;28;20219;-89
2023/03/17 10:52:59;;;;;;;66.43;10.33;;;16.80;56.00;;;;;;5026067;28;20234;-89
2023/03/17 10:55:34;;;;;;;48.10;8.50;;;16.90;56.00;;;;;;5023125;28;20350;-89
2023/03/17 10:58:14;;;;;;;46.50;8.37;;;16.90;56.00;;;;;;5023752;28;20231;-89
2023/03/17 11:00:56;;;;;;;41.97;7.63;;;16.90;56.00;;;;;;5017494;28;20224;-89
2023/03/17 11:03:27;;;;;;;37.50;8.00;;;16.90;56.00;;;;;;5026807;28;20197;-89
2023/03/17 11:06:02;;;;;;;40.70;7.63;;;16.90;56.00;;;;;;5026835;28;20646;-90
2023/03/17 11:08:34;;;;;;;39.87;7.80;;;16.90;56.00;;;;;;5028834;28;20196;-89
2023/03/17 11:11:06;;;;;;;40.67;8.53;;;16.90;56.00;;;;;;5027757;28;21011;-90
2023/03/17 11:13:33;;;;;;;43.87;8.13;;;16.90;56.00;;;;;;5022291;28;20205;-90
2023/03/17 11:16:11;;;;;;;44.63;8.63;;;17.00;56.10;;;;;;5026794;28;20210;-89
2023/03/17 11:18:40;;;;;;;44.33;8.43;;;17.00;56.20;;;;;;5013878;28;20236;-89
2023/03/17 11:21:11;;;;;;;37.33;7.37;;;17.00;56.10;;;;;;5026130;28;20622;-89
2023/03/17 11:23:46;;;;;;;34.27;7.53;;;17.00;56.10;;;;;;5028598;28;20203;-89
2023/03/17 11:26:24;;;;;;;35.10;7.93;;;17.00;56.10;;;;;;5027535;28;20287;-90
2023/03/17 11:28:57;;;;;;;36.20;7.00;;;17.00;56.10;;;;;;5027658;28;20219;-89
2023/03/17 11:31:33;;;;;;;38.30;7.63;;;17.10;56.20;;;;;;5022843;28;20233;-89
2023/03/17 11:34:07;;;;;;;61.13;9.43;;;17.10;56.20;;;;;;5027475;28;20223;-90
2023/03/17 11:36:50;;;;;;;45.30;8.37;;;17.10;56.20;;;;;;5013211;28;20222;-89
2023/03/17 11:39:25;;;;;;;40.00;7.83;;;17.10;56.20;;;;;;5011346;28;20210;-89
2023/03/17 11:42:04;;;;;;;30.77;7.27;;;17.10;56.20;;;;;;5027694;28;20201;-89
2023/03/17 11:45:04;;;;;;;35.87;7.40;;;17.10;56.20;;;;;;5027270;28;20203;-89
2023/03/17 11:48:07;;;;;;;31.43;6.80;;;17.10;56.20;;;;;;5026182;28;20216;-89
2023/03/17 11:50:41;;;;;;;35.10;7.23;;;17.20;56.30;;;;;;5016257;28;20299;-88
2023/03/17 11:53:36;;;;;;;39.83;8.30;;;17.20;56.30;;;;;;5027020;28;20287;-89
2023/03/17 11:56:14;;;;;;;60.87;9.60;;;17.20;56.30;;;;;;5025831;28;20202;-91
2023/03/17 11:58:43;;;;;;;42.63;8.30;;;17.20;56.30;;;;;;5029091;28;20202;-92
2023/03/17 12:01:15;;;;;;;54.73;8.67;;;17.20;56.30;;;;;;5026185;28;20648;-89
2023/03/17 12:03:47;;;;;;;37.53;7.50;;;17.20;56.30;;;;;;5018788;28;20214;-90
2023/03/17 12:06:24;;;;;;;50.53;8.60;;;17.20;56.30;;;;;;5018939;28;20654;-89
2023/03/17 12:08:58;;;;;;;44.40;7.93;;;17.20;56.30;;;;;;5036090;28;20202;-89
2023/03/17 12:14:31;;;;;;;43.97;8.37;;;17.30;56.40;;;;;;4994666;28;20205;-90
2023/03/17 12:17:08;;;;;;;32.97;7.17;;;17.30;56.40;;;;;;5027103;28;20310;-89
2023/03/17 12:19:44;;;;;;;39.67;7.37;;;17.30;56.40;;;;;;5027755;28;20215;-89
2023/03/17 12:22:21;;;;;;;49.90;8.70;;;17.40;56.50;;;;;;5023852;28;20196;-89
2023/03/17 12:24:57;;;;;;;54.33;8.67;;;17.40;56.60;;;;;;5016903;28;20205;-90
2023/03/17 12:27:29;;;;;;;40.30;8.00;;;17.40;56.50;;;;;;5026768;28;20212;-89
2023/03/17 12:30:00;;;;;;;61.60;9.80;;;17.40;56.50;;;;;;5027386;28;20637;-90
2023/03/17 12:32:35;;;;;;;36.67;7.60;;;17.40;56.50;;;;;;5027035;28;20270;-89
2023/03/17 12:35:12;;;;;;;43.40;8.60;;;17.50;56.60;;;;;;5025648;28;20305;-89
2023/03/17 12:37:40;;;;;;;36.87;8.33;;;17.50;56.60;;;;;;5027621;28;20767;-89
2023/03/17 12:40:17;;;;;;;40.30;8.33;;;17.50;56.50;;;;;;5027104;28;20213;-90
2023/03/17 12:42:52;;;;;;;43.93;8.33;;;17.50;56.60;;;;;;5024861;28;20208;-90
2023/03/17 12:45:38;;;;;;;39.00;7.43;;;17.60;56.60;;;;;;5027667;28;20258;-90
2023/03/17 12:48:28;;;;;;;37.83;8.33;;;17.60;56.60;;;;;;5027547;28;20210;-90
2023/03/17 12:51:38;;;;;;;47.93;7.93;;;17.60;56.60;;;;;;5021923;28;20213;-90